Spencerville, Maryland
Current Conditions -  °F | °C
As of 9:00 PM on Monday 24 Nov 2014 (Local Time) from KCGS Reporting Station
Clear Clear  
Wind Chill: 66°   Ceiling: Unl
Heat Index: 66°   Visibility: 10mi
Dew Point: 55°   Wind: 6mph
Humidity: 68%   Direction: 190°S
Pressure: 29.72"   Gusts: NA
Location:  39.11°N, 76.98°W
Report Text: KCGS 250200Z AUTO 19005KT 10SM CLR 19/13 A2972 RMK AO1
Loading
Personal Weather Stations






























Interactive Weather Map New forecast layout! Learn more

10-Day Weather Forecast

Advertisements
Track Severe Weather on mobile